Time;durP1;ratioP1;P1;durP2;ratioP2;P2;SDS_P1;SDS_P2;PMS_P1;PMS_P2;Temp;Humidity;BMP_temperature;BMP_pressure;BME280_temperature;BME280_humidity;BME280_pressure;Samples;Min_cycle;Max_cycle;Signal;HPM_P1;HPM_P2
2024/03/03 00:00:55;;;;;;;2.90;1.40;;;;;;;20.17;38.01;99360.91;4264326;27;19919;-56
2024/03/03 00:02:57;;;;;;;3.67;1.80;;;;;;;20.17;38.03;99358.25;4263861;27;20093;-58
2024/03/03 00:04:58;;;;;;;3.55;1.80;;;;;;;20.14;38.03;99356.72;4263827;27;20047;-58
2024/03/03 00:07:00;;;;;;;3.28;1.50;;;;;;;20.15;38.01;99347.72;4263873;27;20054;-57
2024/03/03 00:09:02;;;;;;;3.35;1.77;;;;;;;20.15;37.52;99350.38;4263717;27;20082;-57
2024/03/03 00:11:04;;;;;;;;;;;;;;;20.15;37.94;99360.25;4264539;27;20047;-58
2024/03/03 00:13:06;;;;;;;3.50;1.85;;;;;;;20.10;38.24;99358.84;4263992;27;19919;-57
2024/03/03 00:15:08;;;;;;;4.40;2.00;;;;;;;20.14;37.71;99358.56;4264031;27;20042;-57
2024/03/03 00:17:11;;;;;;;3.85;1.70;;;;;;;20.17;37.71;99360.91;4263891;27;20088;-56
2024/03/03 00:19:13;;;;;;;3.80;1.95;;;;;;;20.15;37.62;99357.56;4264047;27;20129;-57
2024/03/03 00:21:15;;;;;;;3.55;1.90;;;;;;;20.14;37.85;99369.22;4266687;27;20046;-57
2024/03/03 00:23:16;;;;;;;3.45;1.80;;;;;;;20.16;37.46;99378.78;4266831;27;20046;-57
2024/03/03 00:25:18;;;;;;;3.10;1.70;;;;;;;20.17;37.81;99377.78;4267037;27;20050;-55
2024/03/03 00:27:20;;;;;;;3.90;1.90;;;;;;;20.14;37.82;99382.59;4266858;27;20118;-55
2024/03/03 00:29:21;;;;;;;3.70;1.77;;;;;;;20.06;37.55;99381.50;4266863;27;20043;-57
2024/03/03 00:31:23;;;;;;;4.00;1.90;;;;;;;20.11;37.60;99386.38;4266901;27;20129;-57
2024/03/03 00:33:25;;;;;;;3.40;2.00;;;;;;;20.16;37.52;99383.25;4267081;27;20049;-57
2024/03/03 00:35:26;;;;;;;3.55;1.80;;;;;;;20.17;37.83;99396.47;4248479;27;20043;-57
2024/03/03 00:37:29;;;;;;;3.40;1.80;;;;;;;20.18;37.48;99394.63;4266488;27;20125;-57
2024/03/03 00:39:31;;;;;;;4.32;2.08;;;;;;;20.18;37.92;99386.63;4266739;27;20091;-57
2024/03/03 00:41:32;;;;;;;3.47;1.92;;;;;;;20.16;37.44;99386.78;4266781;27;20139;-57
2024/03/03 00:43:35;;;;;;;3.35;1.85;;;;;;;20.19;37.91;99388.31;4266709;27;20429;-57
2024/03/03 00:45:37;;;;;;;3.35;1.90;;;;;;;20.18;37.94;99392.78;4266765;27;20504;-57
2024/03/03 00:47:38;;;;;;;3.47;2.00;;;;;;;20.14;37.45;99385.25;4266688;27;20549;-57
2024/03/03 00:49:40;;;;;;;3.42;1.85;;;;;;;20.10;37.54;99387.38;4266808;27;20443;-57
2024/03/03 00:51:41;;;;;;;3.33;2.10;;;;;;;20.12;38.03;99404.06;4266237;27;20069;-57
2024/03/03 00:53:43;;;;;;;3.88;2.10;;;;;;;20.11;37.72;99383.72;4266438;27;20097;-57
2024/03/03 00:55:48;;;;;;;3.55;1.95;;;;;;;20.14;37.98;99387.91;4266443;27;20046;-57
2024/03/03 00:57:50;;;;;;;3.75;2.08;;;;;;;20.16;37.50;99385.91;4266564;27;20424;-57
2024/03/03 00:59:52;;;;;;;3.67;2.03;;;;;;;20.16;37.44;99394.78;4266624;27;20053;-57
2024/03/03 01:01:53;;;;;;;4.20;2.05;;;;;;;20.19;37.61;99391.78;4266410;27;20046;-57
2024/03/03 01:03:55;;;;;;;4.32;2.22;;;;;;;20.17;37.71;99390.28;4266362;27;20462;-58
2024/03/03 01:05:56;;;;;;;4.22;1.95;;;;;;;20.17;37.45;99388.47;4265756;27;20050;-57
2024/03/03 01:07:58;;;;;;;3.55;1.92;;;;;;;20.19;37.67;99385.63;4266489;27;20075;-57
2024/03/03 01:10:00;;;;;;;3.70;2.10;;;;;;;20.17;37.65;99380.44;4266391;27;20500;-57
2024/03/03 01:12:02;;;;;;;;;;;;;;;20.15;37.75;99377.09;4266937;27;20134;-58
2024/03/03 01:14:05;;;;;;;4.03;2.00;;;;;;;20.11;37.61;99375.72;4266365;27;20441;-58
2024/03/03 01:16:07;;;;;;;3.58;2.17;;;;;;;20.11;37.93;99371.19;4266188;27;20134;-57
2024/03/03 01:18:08;;;;;;;4.35;2.35;;;;;;;20.13;37.70;99370.22;4266084;27;20125;-57
2024/03/03 01:20:11;;;;;;;3.92;2.08;;;;;;;20.13;37.62;99371.03;4266258;27;20073;-56
2024/03/03 01:22:13;;;;;;;4.07;2.20;;;;;;;20.13;37.39;99375.56;4265844;27;20047;-56
2024/03/03 01:24:15;;;;;;;5.30;2.30;;;;;;;20.11;37.61;99370.38;4266239;27;20463;-56
2024/03/03 01:26:16;;;;;;;3.38;2.08;;;;;;;20.16;37.58;99373.44;4265814;27;20496;-57
2024/03/03 01:28:18;;;;;;;3.95;2.25;;;;;;;20.11;37.85;99373.03;4266127;27;20046;-57
2024/03/03 01:30:20;;;;;;;4.40;2.42;;;;;;;20.15;37.47;99381.59;4266007;27;20074;-56
2024/03/03 01:32:24;;;;;;;4.15;2.38;;;;;;;20.07;37.74;99375.16;4265758;27;20054;-57
2024/03/03 01:34:25;;;;;;;4.25;2.30;;;;;;;20.14;37.52;99390.59;4265866;27;20042;-57
2024/03/03 01:36:28;;;;;;;4.20;2.33;;;;;;;20.08;37.40;99386.69;4247161;27;20043;-57
2024/03/03 01:38:29;;;;;;;4.38;2.50;;;;;;;20.14;37.87;99390.59;4265717;27;20069;-56
2024/03/03 01:40:31;;;;;;;4.28;2.65;;;;;;;20.14;37.56;99385.25;4265870;27;20105;-57
2024/03/03 01:42:33;;;;;;;4.15;2.50;;;;;;;20.12;37.46;99382.72;4265857;27;20046;-57
2024/03/03 01:44:34;;;;;;;4.20;2.50;;;;;;;20.14;37.49;99378.06;4265885;27;20503;-57
2024/03/03 01:46:36;;;;;;;3.65;2.17;;;;;;;20.16;37.48;99377.91;4265585;27;20049;-56
2024/03/03 01:48:38;;;;;;;5.28;2.40;;;;;;;20.17;37.55;99379.59;4265584;27;20493;-57
2024/03/03 01:50:41;;;;;;;4.20;2.53;;;;;;;20.16;37.70;99373.44;4265451;27;20042;-57
2024/03/03 01:52:46;;;;;;;4.22;2.40;;;;;;;20.17;37.72;99371.59;4265678;27;20042;-56
2024/03/03 01:54:48;;;;;;;4.43;2.58;;;;;;;20.15;37.37;99371.75;4265763;27;20078;-57
2024/03/03 01:56:50;;;;;;;3.72;2.22;;;;;;;20.17;37.42;99382.25;4265495;27;20058;-57
2024/03/03 01:58:51;;;;;;;4.15;2.58;;;;;;;20.13;37.63;99378.22;4265471;27;20118;-57
2024/03/03 02:00:53;;;;;;;;;;;;;;;20.15;37.79;99382.41;4265873;27;20074;-56
2024/03/03 02:02:56;;;;;;;4.20;2.35;;;;;;;20.05;37.83;99378.94;4265487;27;19919;-58
2024/03/03 02:04:58;;;;;;;4.78;2.40;;;;;;;20.10;37.83;99380.19;4265043;27;20047;-57
2024/03/03 02:07:00;;;;;;;3.83;2.58;;;;;;;20.13;37.41;99386.22;4265044;27;20058;-57
2024/03/03 02:09:02;;;;;;;4.57;2.60;;;;;;;20.14;37.67;99380.75;4265297;27;20043;-57
2024/03/03 02:11:04;;;;;;;4.43;2.65;;;;;;;20.14;37.46;99378.06;4265495;27;20050;-57
2024/03/03 02:13:06;;;;;;;4.57;2.50;;;;;;;20.15;37.83;99379.75;4265359;27;20039;-57
2024/03/03 02:15:08;;;;;;;5.28;2.75;;;;;;;20.11;37.84;99381.06;4265287;27;20111;-57
2024/03/03 02:17:09;;;;;;;;;;;;;;;20.15;37.69;99386.94;4265994;27;20064;-56
2024/03/03 02:19:11;;;;;;;4.57;2.25;;;;;;;20.13;37.60;99387.06;4265487;27;19919;-56
2024/03/03 02:21:13;;;;;;;5.03;2.50;;;;;;;20.10;37.55;99387.38;4265269;27;20130;-58
2024/03/03 02:23:14;;;;;;;3.88;2.50;;;;;;;20.14;37.32;99391.41;4265404;27;20484;-58
2024/03/03 02:25:16;;;;;;;3.88;2.50;;;;;;;20.13;37.66;99384.38;4265316;27;20039;-58
2024/03/03 02:27:19;;;;;;;4.28;2.42;;;;;;;20.14;37.58;99383.41;4264715;27;20258;-57
2024/03/03 02:29:21;;;;;;;3.72;2.17;;;;;;;19.97;37.79;99361.03;4265291;27;20516;-58
2024/03/03 02:31:25;;;;;;;4.10;2.40;;;;;;;20.12;37.46;99388.03;4265133;27;20062;-58
2024/03/03 02:33:27;;;;;;;4.32;2.65;;;;;;;20.10;37.39;99376.69;4264674;27;20039;-58
2024/03/03 02:35:29;;;;;;;5.10;2.40;;;;;;;20.17;37.52;99382.25;4264960;27;20045;-59
2024/03/03 02:37:30;;;;;;;4.20;2.30;;;;;;;20.14;37.54;99380.75;4265215;27;20046;-58
2024/03/03 02:39:34;;;;;;;3.63;2.28;;;;;;;20.14;37.39;99379.91;4264892;27;20050;-58
2024/03/03 02:41:35;;;;;;;4.55;2.50;;;;;;;20.18;37.69;99382.09;4265026;27;20092;-56
2024/03/03 02:43:37;;;;;;;3.67;2.20;;;;;;;20.19;37.22;99386.47;4264371;27;20046;-58
2024/03/03 02:45:38;;;;;;;4.38;2.47;;;;;;;20.17;37.44;99385.78;4246667;27;20467;-58
2024/03/03 02:47:40;;;;;;;4.45;2.45;;;;;;;20.17;37.74;99390.28;4264442;27;20046;-58
2024/03/03 02:49:42;;;;;;;;;;;;;;;20.15;37.49;99387.75;4246959;27;20132;-56
2024/03/03 02:51:43;;;;;;;3.57;2.27;;;;;;;20.04;37.55;99375.47;4264761;27;20381;-58
2024/03/03 02:53:45;;;;;;;4.05;2.13;;;;;;;20.16;37.08;99392.13;4264926;27;20042;-58
2024/03/03 02:55:47;;;;;;;3.80;2.22;;;;;;;20.14;37.58;99390.59;4264608;27;20447;-58
2024/03/03 02:57:48;;;;;;;4.28;2.28;;;;;;;20.14;37.40;99391.41;4264744;27;20060;-57
2024/03/03 02:59:50;;;;;;;4.28;2.30;;;;;;;20.13;37.31;99397.75;4264757;27;20074;-56
2024/03/03 03:01:52;;;;;;;4.05;2.20;;;;;;;20.16;37.63;99405.47;4264176;27;20039;-58
2024/03/03 03:03:54;;;;;;;3.75;2.13;;;;;;;20.17;37.64;99406.28;4264586;27;20042;-58
2024/03/03 03:05:55;;;;;;;3.97;2.00;;;;;;;20.17;37.29;99409.81;4264310;27;20051;-57
2024/03/03 03:07:57;;;;;;;3.72;2.10;;;;;;;20.14;37.46;99411.94;4264671;27;20493;-57
2024/03/03 03:09:59;;;;;;;3.33;2.13;;;;;;;20.15;37.44;99417.13;4246372;27;20059;-59
2024/03/03 03:12:01;;;;;;;;;;;;;;;20.16;37.26;99408.13;4265174;27;20104;-56
2024/03/03 03:14:02;;;;;;;3.30;1.97;;;;;;;20.08;37.34;99403.50;4264726;27;20018;-56
2024/03/03 03:16:05;;;;;;;3.47;1.90;;;;;;;20.13;37.21;99405.75;4264578;27;20049;-58
2024/03/03 03:18:07;;;;;;;3.13;1.77;;;;;;;20.15;37.33;99400.28;4264282;27;20038;-58
2024/03/03 03:20:09;;;;;;;3.83;1.90;;;;;;;20.10;37.43;99398.06;4264370;27;20095;-58
2024/03/03 03:22:11;;;;;;;4.05;1.85;;;;;;;20.14;37.36;99394.09;4264379;27;20489;-58
2024/03/03 03:24:12;;;;;;;4.05;1.90;;;;;;;20.16;37.42;99405.47;4264650;27;20489;-58
2024/03/03 03:26:14;;;;;;;2.97;1.77;;;;;;;20.17;37.67;99407.16;4264365;27;20122;-58
2024/03/03 03:28:16;;;;;;;3.15;1.63;;;;;;;20.10;37.36;99395.38;4246251;28;20047;-58
2024/03/03 03:30:18;;;;;;;3.70;1.73;;;;;;;20.18;37.50;99402.63;4264515;27;20050;-58
2024/03/03 03:32:19;;;;;;;4.65;1.80;;;;;;;20.10;37.63;99388.19;4264304;27;20039;-58
2024/03/03 03:34:21;;;;;;;3.35;1.60;;;;;;;20.06;37.42;99392.16;4264413;27;20124;-58
2024/03/03 03:36:22;;;;;;;3.55;1.73;;;;;;;20.15;37.53;99403.78;4264351;27;20563;-58
2024/03/03 03:38:24;;;;;;;3.58;1.70;;;;;;;20.15;37.20;99403.78;4264214;27;20087;-58
2024/03/03 03:40:26;;;;;;;3.17;1.70;;;;;;;20.14;37.40;99399.41;4264466;27;20558;-58
2024/03/03 03:42:28;;;;;;;2.45;1.50;;;;;;;20.05;37.69;99387.81;4264436;27;20062;-58
2024/03/03 03:44:29;;;;;;;2.88;1.50;;;;;;;20.15;37.25;99405.63;4264351;27;20047;-58
2024/03/03 03:46:31;;;;;;;2.75;1.42;;;;;;;20.17;37.18;99404.47;4264148;27;20062;-58
2024/03/03 03:48:32;;;;;;;3.50;1.70;;;;;;;20.16;37.20;99405.47;4264389;27;20042;-58
2024/03/03 03:50:34;;;;;;;2.70;1.48;;;;;;;20.17;37.58;99406.28;4264300;27;20053;-58
2024/03/03 03:52:35;;;;;;;3.22;1.45;;;;;;;20.16;37.54;99402.78;4264205;27;20091;-57
2024/03/03 03:54:37;;;;;;;3.03;1.55;;;;;;;20.14;37.46;99403.94;4264381;27;20407;-58
2024/03/03 03:56:39;;;;;;;2.80;1.40;;;;;;;20.08;37.10;99392.84;4267634;27;20495;-58
2024/03/03 03:58:41;;;;;;;2.90;1.50;;;;;;;20.15;37.43;99401.09;4267323;27;20137;-56
2024/03/03 04:00:43;;;;;;;3.33;1.50;;;;;;;20.14;37.34;99399.41;4267333;27;20061;-58
2024/03/03 04:02:46;;;;;;;3.00;1.42;;;;;;;20.17;37.42;99408.97;4267449;27;20050;-57
2024/03/03 04:04:47;;;;;;;2.25;1.40;;;;;;;20.15;37.59;99409.13;4267505;27;20043;-58
2024/03/03 04:06:49;;;;;;;3.35;1.60;;;;;;;20.16;37.18;99407.28;4267109;27;20474;-56
2024/03/03 04:08:51;;;;;;;2.83;1.40;;;;;;;20.16;37.21;99412.59;4267364;27;20555;-57
2024/03/03 04:10:53;;;;;;;2.53;1.30;;;;;;;20.16;37.11;99408.13;4267489;27;20043;-56
2024/03/03 04:12:56;;;;;;;2.45;1.35;;;;;;;20.17;37.45;99411.63;4267497;27;20042;-58
2024/03/03 04:14:57;;;;;;;3.35;1.52;;;;;;;20.16;37.14;99413.47;4266809;27;20051;-56
2024/03/03 04:16:59;;;;;;;3.97;1.35;;;;;;;20.16;37.23;99410.78;4267261;27;20039;-59
2024/03/03 04:19:00;;;;;;;2.78;1.30;;;;;;;20.16;37.41;99405.47;4267325;27;20076;-58
2024/03/03 04:21:02;;;;;;;2.63;1.35;;;;;;;20.15;37.19;99411.78;4267334;27;20576;-58
2024/03/03 04:23:04;;;;;;;;;;;;;;;20.14;37.44;99414.63;4267542;27;20393;-57
2024/03/03 04:25:06;;;;;;;2.67;1.30;;;;;;;20.12;37.38;99414.75;4267166;27;20033;-58
2024/03/03 04:27:08;;;;;;;3.00;1.30;;;;;;;20.13;37.38;99418.25;4267019;27;20409;-58
2024/03/03 04:29:10;;;;;;;;;;;;;;;20.14;37.38;99422.63;4267182;27;20493;-57
2024/03/03 04:31:11;;;;;;;2.83;1.30;;;;;;;20.12;37.13;99422.75;4267313;27;19923;-57
2024/03/03 04:33:13;;;;;;;2.83;1.10;;;;;;;20.14;37.08;99423.44;4266951;27;20038;-57
2024/03/03 04:35:15;;;;;;;3.25;1.60;;;;;;;20.14;37.33;99428.78;4266802;27;20050;-57
2024/03/03 04:37:16;;;;;;;3.38;1.40;;;;;;;20.13;37.26;99427.09;4267096;27;20464;-57
2024/03/03 04:39:19;;;;;;;;;;;;;;;20.14;37.45;99433.28;4267217;27;20043;-57
2024/03/03 04:41:21;;;;;;;2.75;1.50;;;;;;;20.11;37.53;99439.78;4266872;27;19971;-57
2024/03/03 04:43:22;;;;;;;2.95;1.20;;;;;;;20.13;37.13;99447.63;4266546;27;20122;-57
2024/03/03 04:45:24;;;;;;;2.35;1.20;;;;;;;20.13;37.39;99444.97;4266835;27;20042;-53
2024/03/03 04:47:26;;;;;;;2.97;1.33;;;;;;;20.11;37.54;99440.59;4248174;27;20121;-56
2024/03/03 04:49:28;;;;;;;2.42;1.40;;;;;;;20.10;37.19;99456.78;4266950;27;20049;-56
2024/03/03 04:51:30;;;;;;;2.72;1.50;;;;;;;20.09;37.54;99455.09;4266600;27;20043;-55
2024/03/03 04:53:33;;;;;;;3.00;1.42;;;;;;;20.11;37.32;99451.28;4266606;27;20121;-56
2024/03/03 04:55:34;;;;;;;3.00;1.42;;;;;;;20.15;37.13;99456.34;4266471;27;20126;-55
2024/03/03 04:57:36;;;;;;;3.50;1.48;;;;;;;20.03;37.14;99440.50;4266594;27;20070;-56
2024/03/03 04:59:38;;;;;;;3.00;1.40;;;;;;;20.12;37.15;99457.44;4266323;27;20405;-57
2024/03/03 05:01:41;;;;;;;2.90;1.40;;;;;;;20.13;37.38;99461.78;4248081;27;20437;-55
2024/03/03 05:03:45;;;;;;;2.25;1.30;;;;;;;20.13;37.24;99460.97;4266384;27;20058;-56
2024/03/03 05:05:46;;;;;;;2.30;1.20;;;;;;;20.13;37.06;99459.13;4265773;27;20050;-56
2024/03/03 05:07:48;;;;;;;3.45;1.52;;;;;;;20.13;37.44;99459.13;4266235;27;20053;-56
2024/03/03 05:09:49;;;;;;;2.58;1.25;;;;;;;20.13;37.08;99459.13;4266516;27;20408;-56
2024/03/03 05:11:51;;;;;;;2.65;1.20;;;;;;;20.11;36.99;99453.13;4266546;27;20107;-55
2024/03/03 05:13:53;;;;;;;3.13;1.40;;;;;;;20.11;37.02;99458.47;4265890;27;20417;-55
2024/03/03 05:15:55;;;;;;;4.05;1.48;;;;;;;20.11;37.44;99466.47;4266116;27;20494;-56
2024/03/03 05:17:56;;;;;;;2.47;1.45;;;;;;;19.83;37.35;99421.03;4266230;27;20095;-57
2024/03/03 05:19:58;;;;;;;2.50;1.20;;;;;;;20.05;37.15;99462.53;4266098;27;20050;-56
2024/03/03 05:22:00;;;;;;;3.30;1.45;;;;;;;20.03;37.24;99455.69;4266123;27;20054;-55
2024/03/03 05:24:01;;;;;;;2.90;1.38;;;;;;;20.06;37.40;99461.56;4266071;27;20051;-56
2024/03/03 05:26:03;;;;;;;2.50;1.30;;;;;;;20.16;37.06;99474.88;4266117;27;20043;-56
2024/03/03 05:28:05;;;;;;;2.90;1.48;;;;;;;20.16;37.20;99474.88;4265629;27;20038;-56
2024/03/03 05:30:07;;;;;;;2.80;1.38;;;;;;;20.14;37.41;99474.16;4265982;27;20091;-57
2024/03/03 05:32:09;;;;;;;3.15;1.35;;;;;;;20.15;37.27;99477.69;4266050;27;20047;-56
2024/03/03 05:34:12;;;;;;;3.13;1.50;;;;;;;20.09;37.34;99473.78;4265862;27;20050;-57
2024/03/03 05:36:14;;;;;;;2.78;1.50;;;;;;;20.09;37.15;99479.94;4266063;27;20050;-57
2024/03/03 05:38:16;;;;;;;3.08;1.40;;;;;;;20.03;37.23;99466.34;4265954;27;20636;-57
2024/03/03 05:40:17;;;;;;;2.95;1.40;;;;;;;20.10;37.21;99470.94;4247544;27;20103;-57
2024/03/03 05:42:19;;;;;;;3.15;1.73;;;;;;;20.09;37.52;99477.25;4265675;27;20487;-57
2024/03/03 05:44:21;;;;;;;3.40;1.60;;;;;;;20.11;37.26;99482.47;4265688;27;20134;-57
2024/03/03 05:46:23;;;;;;;3.35;1.45;;;;;;;20.08;37.42;99480.91;4265852;27;20107;-57
2024/03/03 05:48:24;;;;;;;3.10;1.70;;;;;;;20.15;37.25;99486.53;4265652;27;20034;-57
2024/03/03 05:50:26;;;;;;;3.20;1.67;;;;;;;20.15;37.40;99489.19;4265692;27;20473;-57
2024/03/03 05:52:28;;;;;;;3.17;1.60;;;;;;;20.17;37.24;99495.22;4265669;27;20047;-57
2024/03/03 05:54:30;;;;;;;2.58;1.50;;;;;;;20.15;37.15;99501.72;4265630;27;20063;-58
2024/03/03 05:56:31;;;;;;;4.03;2.10;;;;;;;20.14;37.28;99502.69;4265195;27;20509;-57
2024/03/03 05:58:36;;;;;;;3.92;1.60;;;;;;;20.11;37.20;99507.34;4265413;27;20053;-57
2024/03/03 06:00:37;;;;;;;3.40;1.88;;;;;;;20.11;37.07;99496.66;4265610;27;20042;-58
2024/03/03 06:02:39;;;;;;;4.20;1.92;;;;;;;20.13;36.88;99501.84;4265579;27;20069;-57
2024/03/03 06:04:40;;;;;;;2.95;1.52;;;;;;;20.11;36.95;99498.50;4246916;27;20091;-57
2024/03/03 06:06:42;;;;;;;2.80;1.52;;;;;;;20.11;37.13;99496.66;4265253;27;20103;-57
2024/03/03 06:08:45;;;;;;;3.67;1.65;;;;;;;20.12;37.28;99497.47;4265512;27;20043;-56
2024/03/03 06:10:47;;;;;;;3.28;1.60;;;;;;;20.12;37.09;99494.81;4264944;27;20158;-57
2024/03/03 06:12:48;;;;;;;3.03;1.90;;;;;;;20.13;37.33;99501.00;4265480;27;20039;-57
2024/03/03 06:14:51;;;;;;;4.25;1.95;;;;;;;20.16;37.18;99500.69;4265277;27;20489;-57
2024/03/03 06:16:53;;;;;;;3.38;1.80;;;;;;;20.16;36.91;99495.34;4265349;27;20122;-57
2024/03/03 06:18:55;;;;;;;4.20;2.00;;;;;;;20.14;36.83;99500.84;4264426;27;20055;-57
2024/03/03 06:20:57;;;;;;;3.83;1.90;;;;;;;20.10;37.19;99500.31;4265210;27;20047;-57
2024/03/03 06:22:59;;;;;;;4.65;2.03;;;;;;;20.09;37.30;99503.97;4265110;27;20042;-57
2024/03/03 06:25:01;;;;;;;4.20;2.28;;;;;;;20.09;37.17;99505.78;4264784;27;20051;-57
2024/03/03 06:27:02;;;;;;;3.83;2.05;;;;;;;20.09;36.90;99509.28;4265205;27;20047;-57
2024/03/03 06:29:04;;;;;;;3.92;2.17;;;;;;;20.04;37.06;99498.22;4264950;27;20504;-57
2024/03/03 06:31:08;;;;;;;3.30;1.88;;;;;;;20.09;36.78;99503.13;4264861;27;20058;-57
2024/03/03 06:33:10;;;;;;;3.72;2.08;;;;;;;20.03;37.05;99493.88;4246453;27;20093;-58
2024/03/03 06:35:12;;;;;;;3.90;2.10;;;;;;;20.10;36.85;99516.31;4264890;27;20054;-57
2024/03/03 06:37:15;;;;;;;4.15;1.90;;;;;;;20.14;37.20;99518.72;4264801;27;20114;-58
2024/03/03 06:39:16;;;;;;;4.05;2.05;;;;;;;20.14;36.85;99524.06;4265005;27;20042;-57
2024/03/03 06:41:19;;;;;;;4.15;2.28;;;;;;;20.09;36.76;99524.47;4265003;27;20039;-57
2024/03/03 06:43:20;;;;;;;4.22;2.10;;;;;;;20.10;36.91;99542.19;4264752;27;20043;-57
2024/03/03 06:45:22;;;;;;;4.40;2.22;;;;;;;20.10;37.16;99550.19;4264645;27;20043;-57
2024/03/03 06:47:24;;;;;;;3.70;2.10;;;;;;;20.09;37.00;99549.34;4264802;27;20046;-57
2024/03/03 06:49:25;;;;;;;3.53;2.17;;;;;;;20.07;37.24;99547.81;4264832;27;20042;-57
2024/03/03 06:51:27;;;;;;;4.25;2.28;;;;;;;20.08;36.70;99554.81;4264753;27;20104;-56
2024/03/03 06:53:29;;;;;;;3.78;2.28;;;;;;;20.11;36.82;99554.53;4264813;27;20054;-56
2024/03/03 06:55:30;;;;;;;4.10;2.30;;;;;;;20.14;36.70;99564.09;4264495;27;20062;-56
2024/03/03 06:57:32;;;;;;;4.85;2.28;;;;;;;20.14;36.93;99574.75;4246304;27;20563;-57
2024/03/03 06:59:34;;;;;;;4.07;2.13;;;;;;;20.15;37.12;99571.94;4264622;27;20129;-55
2024/03/03 07:01:36;;;;;;;4.30;2.30;;;;;;;20.14;37.17;99574.75;4264761;27;20063;-57
2024/03/03 07:05:57;;;;;;;4.20;2.28;;;;;;;20.11;36.95;99576.72;4264419;27;20058;-56
2024/03/03 07:07:59;;;;;;;3.80;2.30;;;;;;;20.07;36.89;99575.34;4264691;27;20043;-57
2024/03/03 07:10:05;;;;;;;4.28;2.20;;;;;;;20.08;36.84;99578.84;4264304;27;20049;-57
2024/03/03 07:12:07;;;;;;;3.83;2.20;;;;;;;20.11;37.16;99591.91;4264642;27;20058;-56
2024/03/03 07:14:09;;;;;;;4.57;2.47;;;;;;;20.07;36.90;99586.03;4264489;27;20054;-57
2024/03/03 07:16:11;;;;;;;4.20;2.20;;;;;;;20.10;37.13;99600.91;4264706;27;20049;-56
2024/03/03 07:18:12;;;;;;;4.20;2.38;;;;;;;20.07;37.17;99604.72;4264483;27;20565;-57
2024/03/03 07:20:14;;;;;;;4.25;2.63;;;;;;;20.16;36.87;99608.34;4264497;27;20043;-56
2024/03/03 07:22:16;;;;;;;4.15;2.47;;;;;;;20.14;37.11;99612.13;4264447;27;20051;-57
2024/03/03 07:24:18;;;;;;;5.25;2.60;;;;;;;20.14;36.74;99612.97;4264168;27;20383;-56
2024/03/03 07:26:19;;;;;;;4.75;2.47;;;;;;;20.16;36.98;99615.47;4264627;27;20087;-56
2024/03/03 07:28:21;;;;;;;4.22;2.50;;;;;;;20.15;37.06;99613.81;4264314;27;20039;-55
2024/03/03 07:30:23;;;;;;;3.70;2.35;;;;;;;20.14;36.76;99618.31;4267663;27;20054;-55
2024/03/03 07:32:28;;;;;;;3.83;2.40;;;;;;;20.10;36.89;99611.59;4267943;27;20050;-56
2024/03/03 07:34:30;;;;;;;4.20;2.30;;;;;;;20.14;36.92;99614.81;4267802;27;20043;-56
2024/03/03 07:36:31;;;;;;;4.20;2.40;;;;;;;20.10;36.74;99607.06;4267752;27;20095;-57
2024/03/03 07:38:34;;;;;;;4.50;2.40;;;;;;;20.10;37.11;99619.59;4249268;27;20046;-57
2024/03/03 07:40:37;;;;;;;4.38;2.30;;;;;;;20.09;37.14;99620.56;4267641;27;20043;-56
2024/03/03 07:42:39;;;;;;;3.90;2.20;;;;;;;20.11;37.14;99623.94;4267707;27;20109;-56
2024/03/03 07:44:41;;;;;;;4.78;2.47;;;;;;;20.11;36.87;99624.78;4267657;27;20072;-57
2024/03/03 07:46:42;;;;;;;4.40;2.50;;;;;;;20.14;36.77;99626.31;4267746;27;20043;-57
2024/03/03 07:48:44;;;;;;;4.50;2.42;;;;;;;20.13;37.10;99631.81;4267723;27;20042;-56
2024/03/03 07:50:47;;;;;;;4.25;2.40;;;;;;;20.07;36.80;99619.88;4267557;27;20546;-56
2024/03/03 07:52:48;;;;;;;;;;;;;;;20.14;37.06;99628.16;4267759;27;20562;-56
2024/03/03 07:54:50;;;;;;;4.85;2.40;;;;;;;20.11;37.08;99635.44;4267583;27;20005;-57
2024/03/03 07:56:52;;;;;;;4.45;2.70;;;;;;;20.10;37.13;99647.13;4267498;27;20039;-56
2024/03/03 07:58:53;;;;;;;4.45;2.13;;;;;;;20.09;36.91;99644.59;4267483;27;20051;-56
2024/03/03 08:00:55;;;;;;;4.32;2.40;;;;;;;20.11;36.84;99639.97;4267609;27;20484;-56
2024/03/03 08:02:57;;;;;;;;;;;;;;;20.10;36.82;99648.94;4267873;27;20095;-56
2024/03/03 08:04:59;;;;;;;4.03;2.37;;;;;;;20.09;37.07;99648.09;4267171;27;19969;-55
2024/03/03 08:07:00;;;;;;;4.43;2.42;;;;;;;20.09;36.83;99645.44;4266861;27;20055;-56
2024/03/03 08:09:03;;;;;;;4.32;2.40;;;;;;;20.02;36.94;99633.63;4267240;27;20050;-56
2024/03/03 08:11:05;;;;;;;3.70;2.30;;;;;;;20.05;37.09;99633.38;4267556;27;20046;-57
2024/03/03 08:13:08;;;;;;;4.60;2.35;;;;;;;20.13;37.07;99650.50;4267190;27;20043;-57
2024/03/03 08:15:10;;;;;;;4.38;2.40;;;;;;;20.13;37.00;99647.81;4267422;27;20492;-58
2024/03/03 08:17:12;;;;;;;;;;;;;;;20.14;36.80;99649.50;4267736;27;20471;-57
2024/03/03 08:19:13;;;;;;;4.90;2.45;;;;;;;20.13;36.88;99654.00;4267334;27;19922;-56
2024/03/03 08:21:15;;;;;;;4.18;2.17;;;;;;;20.15;36.68;99645.84;4248337;27;20063;-56
2024/03/03 08:23:17;;;;;;;4.35;2.63;;;;;;;20.14;36.95;99637.00;4267213;27;20053;-57
2024/03/03 08:25:21;;;;;;;4.05;2.25;;;;;;;19.85;37.08;99599.69;4248895;27;20130;-57
2024/03/03 08:27:22;;;;;;;4.78;2.60;;;;;;;20.08;36.86;99638.41;4267064;27;20471;-57
2024/03/03 08:29:24;;;;;;;4.53;2.30;;;;;;;20.10;37.08;99641.78;4267058;27;20489;-57
2024/03/03 08:31:31;;;;;;;4.82;2.50;;;;;;;20.11;37.00;99642.63;4267072;27;20421;-57
2024/03/03 08:33:32;;;;;;;5.05;2.35;;;;;;;20.13;36.97;99645.16;4267032;27;20043;-57
2024/03/03 08:35:34;;;;;;;3.92;2.45;;;;;;;20.14;36.63;99646.84;4266634;27;20050;-57
2024/03/03 08:37:36;;;;;;;4.45;2.20;;;;;;;20.08;36.76;99649.06;4266938;27;20039;-57
2024/03/03 08:39:38;;;;;;;4.45;2.42;;;;;;;20.16;36.60;99653.72;4267011;27;20125;-57
2024/03/03 08:41:43;;;;;;;4.32;2.30;;;;;;;20.15;36.69;99654.69;4265876;27;20129;-57
2024/03/03 08:43:44;;;;;;;4.20;2.30;;;;;;;20.13;36.92;99656.66;4266640;27;20470;-57
2024/03/03 08:45:46;;;;;;;4.55;2.17;;;;;;;20.13;36.77;99658.50;4248581;27;20047;-57
2024/03/03 08:47:48;;;;;;;4.15;2.42;;;;;;;20.13;36.42;99658.50;4266737;27;20480;-57
2024/03/03 08:49:49;;;;;;;4.03;2.10;;;;;;;20.10;36.65;99663.13;4266338;27;20045;-57
2024/03/03 08:51:51;;;;;;;4.90;2.50;;;;;;;20.10;36.70;99663.13;4266698;27;20046;-57
2024/03/03 08:53:53;;;;;;;3.83;2.08;;;;;;;20.11;36.83;99667.50;4266649;27;20042;-57
2024/03/03 08:55:54;;;;;;;5.35;2.40;;;;;;;20.14;36.75;99669.03;4248463;27;20051;-58
2024/03/03 08:57:56;;;;;;;4.55;2.30;;;;;;;19.95;36.44;99640.53;4266566;27;20047;-58
2024/03/03 08:59:58;;;;;;;4.60;2.25;;;;;;;20.17;36.63;99671.41;4266619;27;20054;-57
2024/03/03 09:01:59;;;;;;;4.93;2.58;;;;;;;20.18;36.91;99677.59;4266224;27;20042;-57
2024/03/03 09:04:01;;;;;;;3.78;1.85;;;;;;;20.19;36.55;99681.94;4266384;27;20147;-57
2024/03/03 09:06:03;;;;;;;5.25;2.20;;;;;;;20.16;36.84;99672.41;4265917;27;20050;-57
2024/03/03 09:08:05;;;;;;;;;;;;;;;20.18;36.71;99683.75;4266627;27;20129;-57
2024/03/03 09:10:07;;;;;;;4.28;2.35;;;;;;;20.17;36.85;99689.25;4266415;27;20424;-57
2024/03/03 09:12:08;;;;;;;;;;;;;;;20.18;36.54;99690.94;4266752;27;20042;-57
2024/03/03 09:14:11;;;;;;;3.80;2.17;;;;;;;20.15;36.76;99691.25;4266169;27;19971;-57
2024/03/03 09:16:13;;;;;;;5.18;2.30;;;;;;;20.08;36.71;99682.94;4266405;27;20485;-57
2024/03/03 09:18:15;;;;;;;4.07;2.40;;;;;;;20.17;36.66;99700.78;4266266;27;20074;-57
2024/03/03 09:20:17;;;;;;;4.63;2.60;;;;;;;20.11;36.82;99693.34;4265984;27;20501;-57
2024/03/03 09:22:18;;;;;;;4.00;2.22;;;;;;;20.17;36.62;99703.47;4266306;27;20091;-57
2024/03/03 09:24:22;;;;;;;4.07;2.28;;;;;;;20.18;36.85;99705.13;4266085;27;20126;-57
2024/03/03 09:26:24;;;;;;;4.53;2.35;;;;;;;20.19;36.51;99706.81;4266007;27;20130;-57
2024/03/03 09:28:26;;;;;;;4.15;2.30;;;;;;;20.10;36.40;99697.00;4266100;27;20055;-57
2024/03/03 09:30:28;;;;;;;4.18;2.10;;;;;;;20.21;36.76;99717.38;4266053;27;20044;-57
2024/03/03 09:32:30;;;;;;;4.72;2.13;;;;;;;20.22;36.47;99714.56;4266280;27;20135;-57
2024/03/03 09:34:32;;;;;;;5.00;2.50;;;;;;;20.14;36.53;99708.25;4265596;27;20072;-57
2024/03/03 09:36:34;;;;;;;;;;;;;;;20.19;36.70;99728.16;4266432;27;20512;-58
2024/03/03 09:38:36;;;;;;;4.25;2.20;;;;;;;20.16;36.75;99725.78;4266018;27;20369;-57